Time;durP1;ratioP1;P1;durP2;ratioP2;P2;SDS_P1;SDS_P2;PMS_P1;PMS_P2;Temp;Humidity;BMP_temperature;BMP_pressure;BME280_temperature;BME280_humidity;BME280_pressure;Samples;Min_cycle;Max_cycle;Signal;HPM_P1;HPM_P2
2022/10/27 00:00:11;;;;;;;4.03;3.20;;;;;;;13.31;89.88;102092.25;6222833;28;20236;-75
2022/10/27 00:03:37;;;;;;;4.10;3.70;;;;;;;13.25;89.75;102092.75;6216772;28;20236;-75
2022/10/27 00:06:58;;;;;;;3.40;2.93;;;;;;;13.08;92.30;102098.69;6214689;28;20610;-74
2022/10/27 00:10:19;;;;;;;3.83;2.73;;;;;;;13.12;91.69;102094.75;6221801;28;20269;-74
2022/10/27 00:13:40;;;;;;;4.63;3.33;;;;;;;13.25;91.36;102093.63;6223255;28;20232;-75
2022/10/27 00:17:02;;;;;;;4.73;3.00;;;;;;;13.34;90.46;102097.44;6217173;28;20228;-75
2022/10/27 00:20:23;;;;;;;6.50;2.13;;;;;;;13.35;90.24;102101.91;6214724;28;20549;-76
2022/10/27 00:23:44;;;;;;;3.37;3.00;;;;;;;13.24;91.34;102104.59;6201678;28;20609;-74
2022/10/27 00:27:07;;;;;;;3.87;3.10;;;;;;;13.25;91.06;102109.00;6215719;28;20514;-76
2022/10/27 00:30:28;;;;;;;4.77;3.37;;;;;;;13.30;90.97;102107.69;6219666;28;20323;-74
2022/10/27 00:33:50;;;;;;;3.93;3.53;;;;;;;13.28;90.70;102115.06;6216152;28;20224;-74
2022/10/27 00:37:11;;;;;;;4.80;2.63;;;;;;;13.28;91.15;102122.31;6213883;28;20229;-76
2022/10/27 00:40:37;;;;;;;4.07;2.73;;;;;;;13.17;91.62;102109.63;6220208;28;20240;-74
2022/10/27 00:43:59;;;;;;;4.80;2.97;;;;;;;13.07;92.48;102111.38;6225442;28;21092;-74
2022/10/27 00:47:23;;;;;;;5.43;3.03;;;;;;;12.93;93.73;102121.53;6228500;28;20231;-74
2022/10/27 00:50:46;;;;;;;4.30;3.07;;;;;;;13.03;92.90;102120.69;6216979;28;20228;-74
2022/10/27 00:54:07;;;;;;;5.77;3.87;;;;;;;12.98;93.12;102128.28;6217563;28;20574;-75
2022/10/27 00:57:30;;;;;;;3.80;3.33;;;;;;;13.01;93.00;102124.47;6224049;28;20315;-74
2022/10/27 01:00:51;;;;;;;2.53;2.30;;;;;;;13.10;92.59;102121.94;6228092;28;20311;-74
2022/10/27 01:04:15;;;;;;;5.10;2.77;;;;;;;13.05;92.55;102126.00;6230209;28;20252;-74
2022/10/27 01:07:38;;;;;;;3.37;2.67;;;;;;;13.12;92.00;102132.66;6229242;28;20235;-75
2022/10/27 01:10:59;;;;;;;5.93;3.13;;;;;;;13.13;91.30;102134.38;6226028;28;20252;-75
2022/10/27 01:14:20;;;;;;;5.37;3.47;;;;;;;13.15;90.75;102138.69;6220112;28;20232;-74
2022/10/27 01:17:53;;;;;;;4.03;3.10;;;;;;;13.14;90.93;102136.94;6224613;28;20359;-74
2022/10/27 01:21:34;;;;;;;3.57;2.77;;;;;;;13.05;91.67;102134.13;6226323;28;20232;-75
2022/10/27 01:25:26;;;;;;;5.27;4.30;;;;;;;12.97;91.81;102133.84;6228032;28;20610;-74
2022/10/27 01:29:08;;;;;;;4.17;3.03;;;;;;;12.99;92.23;102134.56;6227625;28;20225;-75
2022/10/27 01:32:37;;;;;;;5.20;3.87;;;;;;;12.94;92.33;102134.94;6230259;28;20237;-75
2022/10/27 01:36:04;;;;;;;3.03;2.83;;;;;;;12.87;92.91;102135.53;6227778;28;20224;-74
2022/10/27 01:44:11;;;;;;;8.57;3.83;;;;;;;12.70;94.24;102139.56;6211541;28;22042;-76
2022/10/27 01:47:34;;;;;;;6.13;3.47;;;;;;;12.80;93.36;102143.28;6228477;28;20247;-75
2022/10/27 01:50:55;;;;;;;4.23;3.10;;;;;;;12.80;92.51;102149.56;6229075;28;20236;-73
2022/10/27 01:54:17;;;;;;;3.53;2.30;;;;;;;12.84;92.31;102142.91;6221243;28;20324;-74
2022/10/27 01:57:49;;;;;;;3.67;2.97;;;;;;;12.88;92.39;102145.38;6229728;28;20232;-75
2022/10/27 02:01:27;;;;;;;3.37;3.07;;;;;;;12.89;91.35;102156.09;6213800;28;20540;-73
2022/10/27 02:05:03;;;;;;;3.83;3.53;;;;;;;12.89;91.27;102155.22;6230863;28;20605;-74
2022/10/27 02:08:34;;;;;;;4.30;3.90;;;;;;;12.84;91.23;102164.56;6235442;28;20233;-76
2022/10/27 02:11:59;;;;;;;5.20;3.70;;;;;;;12.73;93.00;102166.38;6220352;28;20248;-74
2022/10/27 02:15:28;;;;;;;3.43;2.70;;;;;;;12.78;92.70;102162.34;6235973;28;20248;-75
2022/10/27 02:18:53;;;;;;;3.67;3.27;;;;;;;12.76;92.85;102174.25;6229215;28;20223;-75
2022/10/27 02:22:15;;;;;;;3.93;3.00;;;;;;;12.68;93.89;102182.94;6220964;28;20236;-76
2022/10/27 02:25:42;;;;;;;4.10;3.30;;;;;;;12.74;93.49;102181.63;6231013;28;21179;-76
2022/10/27 02:29:07;;;;;;;8.50;3.20;;;;;;;12.80;94.12;102178.44;6219879;28;20506;-75
2022/10/27 02:32:29;;;;;;;5.40;4.13;;;;;;;12.78;94.76;102177.72;6220783;28;20251;-75
2022/10/27 02:35:51;;;;;;;3.60;3.07;;;;;;;12.86;93.82;102183.38;6228341;28;20248;-75
2022/10/27 02:39:13;;;;;;;3.53;3.23;;;;;;;12.97;94.01;102196.97;6226116;28;20259;-76
2022/10/27 02:42:34;;;;;;;3.70;2.93;;;;;;;13.03;93.98;102184.78;6222095;28;20684;-75
2022/10/27 02:45:55;;;;;;;2.83;2.57;;;;;;;13.05;93.85;102197.25;6227417;28;22767;-75
2022/10/27 02:49:16;;;;;;;3.03;2.57;;;;;;;13.05;93.29;102186.44;6219715;28;20248;-75
2022/10/27 02:52:37;;;;;;;7.00;4.23;;;;;;;13.05;92.78;102196.38;6217228;28;20875;-75
2022/10/27 02:55:59;;;;;;;3.97;2.97;;;;;;;13.06;93.82;102204.38;6225420;28;20240;-74
2022/10/27 02:59:20;;;;;;;3.43;2.23;;;;;;;13.10;94.87;102208.56;6227556;28;20235;-74
2022/10/27 03:02:41;;;;;;;3.37;2.70;;;;;;;13.17;95.39;102208.97;6229997;28;20829;-74
2022/10/27 03:06:02;;;;;;;4.20;3.40;;;;;;;13.24;95.51;102211.09;6219697;28;20253;-74
2022/10/27 03:09:22;;;;;;;2.90;2.70;;;;;;;13.35;95.32;102219.19;6226542;28;20236;-75
2022/10/27 03:12:47;;;;;;;5.43;3.20;;;;;;;13.37;95.19;102210.97;6229395;28;20286;-74
2022/10/27 03:16:08;;;;;;;3.47;3.20;;;;;;;13.37;95.17;102219.09;6215469;28;20252;-74
2022/10/27 03:19:29;;;;;;;7.03;2.60;;;;;;;13.43;95.01;102224.88;6233251;28;20233;-74
2022/10/27 03:22:49;;;;;;;6.83;3.03;;;;;;;13.43;95.14;102232.16;6219539;28;20228;-74
2022/10/27 03:26:10;;;;;;;2.73;2.10;;;;;;;13.47;94.86;102233.66;6218107;28;20859;-75
2022/10/27 03:29:33;;;;;;;3.50;2.30;;;;;;;13.59;95.07;102227.25;6230879;28;20730;-74
2022/10/27 03:32:54;;;;;;;3.77;3.33;;;;;;;13.66;95.33;102235.75;6227044;28;20235;-76
2022/10/27 03:36:14;;;;;;;3.90;2.63;;;;;;;13.66;95.09;102233.91;6214212;28;20232;-74
2022/10/27 03:39:35;;;;;;;2.27;2.17;;;;;;;13.74;94.98;102236.00;6236916;28;20654;-74
2022/10/27 03:42:57;;;;;;;3.60;3.10;;;;;;;13.79;94.87;102229.19;6226641;28;20232;-75
2022/10/27 03:46:19;;;;;;;3.30;2.67;;;;;;;13.83;94.60;102232.56;6217469;28;20245;-75
2022/10/27 03:49:40;;;;;;;4.23;3.40;;;;;;;13.83;94.53;102233.38;6222764;28;20224;-74
2022/10/27 03:53:02;;;;;;;2.27;2.07;;;;;;;13.84;94.11;102243.25;6232820;28;20224;-74
2022/10/27 03:56:22;;;;;;;4.87;3.30;;;;;;;13.86;94.34;102244.00;6218802;28;20376;-74
2022/10/27 03:59:44;;;;;;;6.93;3.03;;;;;;;13.93;94.60;102245.25;6231256;28;20225;-74
2022/10/27 04:03:06;;;;;;;4.33;2.50;;;;;;;13.92;94.64;102242.63;6224272;28;20231;-74
2022/10/27 04:06:27;;;;;;;4.87;2.53;;;;;;;13.89;94.27;102245.59;6218497;28;20224;-75
2022/10/27 04:09:48;;;;;;;3.73;3.20;;;;;;;13.92;94.33;102248.91;6234746;28;20240;-75
2022/10/27 04:13:09;;;;;;;4.03;3.17;;;;;;;13.91;94.51;102255.34;6232306;28;20243;-75
2022/10/27 04:16:29;;;;;;;5.33;2.70;;;;;;;13.85;94.15;102258.53;6221626;28;20901;-75
2022/10/27 04:19:51;;;;;;;3.40;2.97;;;;;;;13.92;94.33;102257.06;6235335;28;20228;-75
2022/10/27 04:23:12;;;;;;;7.23;2.60;;;;;;;13.87;94.46;102264.69;6226056;28;20224;-75
2022/10/27 04:26:33;;;;;;;3.87;3.00;;;;;;;13.82;94.40;102260.63;6217656;28;20235;-74
2022/10/27 04:29:54;;;;;;;2.13;2.03;;;;;;;13.80;93.84;102263.47;6234093;28;20240;-75
2022/10/27 04:33:15;;;;;;;3.87;2.30;;;;;;;13.76;94.32;102263.84;6202346;28;20223;-74
2022/10/27 04:36:37;;;;;;;7.80;3.63;;;;;;;13.72;93.77;102260.50;6204921;28;20564;-75
2022/10/27 04:39:58;;;;;;;4.27;3.20;;;;;;;13.59;93.27;102255.22;6224178;28;20760;-75
2022/10/27 04:43:19;;;;;;;2.90;2.30;;;;;;;13.56;92.97;102257.28;6223827;28;20232;-74
2022/10/27 04:46:40;;;;;;;5.63;3.00;;;;;;;13.49;92.89;102253.34;6214186;28;20236;-75
2022/10/27 04:50:00;;;;;;;3.17;2.43;;;;;;;13.44;93.27;102253.72;6220550;28;20233;-75
2022/10/27 04:53:23;;;;;;;6.93;4.17;;;;;;;13.42;93.09;102252.97;6224946;28;20601;-75
2022/10/27 04:56:44;;;;;;;4.10;3.70;;;;;;;13.34;93.09;102254.53;6213250;28;20240;-76
2022/10/27 05:00:05;;;;;;;6.87;3.50;;;;;;;13.35;93.61;102257.13;6215073;28;20556;-75
2022/10/27 05:03:26;;;;;;;3.87;3.23;;;;;;;13.31;93.18;102261.06;6214421;28;20598;-75
2022/10/27 05:06:47;;;;;;;5.33;3.17;;;;;;;13.24;93.00;102258.97;6208988;28;20274;-75
2022/10/27 05:10:10;;;;;;;6.07;3.03;;;;;;;13.18;92.61;102260.31;6218055;28;21786;-75
2022/10/27 05:13:30;;;;;;;5.53;4.93;;;;;;;13.11;93.37;102267.16;6223380;28;20229;-75
2022/10/27 05:16:51;;;;;;;6.97;2.80;;;;;;;12.91;94.17;102265.09;6199256;28;20239;-74
2022/10/27 05:20:12;;;;;;;4.40;2.80;;;;;;;12.83;94.47;102273.78;6201829;28;20232;-76
2022/10/27 05:23:33;;;;;;;4.33;2.67;;;;;;;12.89;94.47;102275.19;6207437;28;20236;-75
2022/10/27 05:26:55;;;;;;;4.07;3.07;;;;;;;12.71;94.52;102285.56;6207441;28;20777;-75
2022/10/27 05:30:16;;;;;;;3.37;3.07;;;;;;;12.64;94.74;102276.16;6208295;28;20228;-76
2022/10/27 05:33:37;;;;;;;3.77;2.90;;;;;;;12.50;95.49;102281.75;6206393;28;20318;-76
2022/10/27 05:36:58;;;;;;;3.90;3.20;;;;;;;12.60;95.16;102277.38;6223336;28;20228;-76
2022/10/27 05:40:19;;;;;;;3.80;3.47;;;;;;;12.69;94.86;102284.81;6216063;28;20321;-76
2022/10/27 05:43:41;;;;;;;3.67;2.90;;;;;;;12.68;93.81;102284.94;6218324;28;20529;-76
2022/10/27 05:47:02;;;;;;;3.97;3.67;;;;;;;12.39;94.74;102278.13;6214330;28;20582;-73
2022/10/27 05:50:23;;;;;;;6.10;3.03;;;;;;;12.40;94.73;102288.81;6214386;28;20266;-73
2022/10/27 05:53:43;;;;;;;6.03;4.53;;;;;;;12.38;95.00;102281.78;6221905;28;20228;-80
2022/10/27 05:57:04;;;;;;;4.57;2.90;;;;;;;12.46;94.03;102299.19;6216832;28;20838;-80
2022/10/27 06:00:30;;;;;;;3.87;2.93;;;;;;;12.52;94.39;102287.03;6224447;28;20229;-79
2022/10/27 06:03:51;;;;;;;7.37;3.87;;;;;;;12.56;93.81;102297.50;6220312;28;20229;-80
2022/10/27 06:07:12;;;;;;;4.33;2.80;;;;;;;12.52;94.06;102301.44;6203532;28;20318;-73
2022/10/27 06:10:33;;;;;;;3.43;3.13;;;;;;;12.44;93.71;102298.44;6213708;28;20491;-80
2022/10/27 06:13:54;;;;;;;5.00;3.10;;;;;;;12.65;94.13;102296.84;6212711;28;20240;-77
2022/10/27 06:17:16;;;;;;;5.20;2.80;;;;;;;12.52;93.30;102293.31;6214478;28;20315;-77
2022/10/27 06:20:37;;;;;;;5.70;4.33;;;;;;;12.56;93.37;102300.22;6228865;28;20232;-78
2022/10/27 06:23:58;;;;;;;8.17;3.70;;;;;;;12.33;93.96;102298.34;6230810;28;20256;-79
2022/10/27 06:27:19;;;;;;;4.30;2.60;;;;;;;12.27;95.12;102304.22;6213137;28;20232;-76
2022/10/27 06:30:41;;;;;;;4.20;3.27;;;;;;;12.40;94.58;102310.44;6226723;28;21455;-79
2022/10/27 06:34:03;;;;;;;4.47;4.07;;;;;;;12.48;93.90;102301.75;6223260;28;20228;-78
2022/10/27 06:37:24;;;;;;;6.37;3.43;;;;;;;12.55;93.83;102303.03;6207978;28;20849;-72
2022/10/27 06:40:45;;;;;;;5.20;3.23;;;;;;;12.55;94.25;102308.47;6212607;28;20509;-76
2022/10/27 06:44:06;;;;;;;4.57;2.83;;;;;;;12.57;93.79;102312.78;6218461;28;20328;-75
2022/10/27 06:47:27;;;;;;;5.47;3.90;;;;;;;12.66;93.56;102311.25;6207317;28;20335;-80
2022/10/27 06:50:49;;;;;;;4.83;3.30;;;;;;;12.56;93.56;102326.41;6218955;28;20225;-79
2022/10/27 06:54:10;;;;;;;5.30;4.47;;;;;;;12.28;94.91;102332.13;6222531;28;20323;-75
2022/10/27 06:57:39;;;;;;;4.47;2.57;;;;;;;12.32;95.69;102325.50;6213592;28;20605;-78
2022/10/27 07:00:59;;;;;;;10.13;3.50;;;;;;;12.46;95.69;102326.22;6211819;28;20888;-74
2022/10/27 07:04:21;;;;;;;11.07;5.90;;;;;;;12.50;95.10;102326.84;6216588;28;20224;-81
2022/10/27 07:07:47;;;;;;;5.10;4.13;;;;;;;12.61;94.64;102327.81;6220578;28;20668;-79
2022/10/27 07:11:08;;;;;;;6.83;3.70;;;;;;;12.45;95.21;102337.16;6215811;28;20228;-80
2022/10/27 07:14:29;;;;;;;5.77;3.80;;;;;;;12.54;95.23;102333.75;6237914;28;20319;-79
2022/10/27 07:17:55;;;;;;;3.83;3.33;;;;;;;12.73;94.71;102337.72;6206117;28;22594;-79
2022/10/27 07:21:16;;;;;;;4.20;3.80;;;;;;;12.69;94.76;102348.88;6213219;28;20244;-80
2022/10/27 07:24:38;;;;;;;4.47;3.20;;;;;;;12.66;95.07;102341.00;6229319;28;20236;-75
2022/10/27 07:28:01;;;;;;;4.03;3.53;;;;;;;12.62;95.64;102345.75;6209011;28;20235;-76
2022/10/27 07:31:22;;;;;;;4.53;3.63;;;;;;;12.62;96.10;102345.75;6196391;28;20232;-75
2022/10/27 07:34:43;;;;;;;4.90;4.50;;;;;;;12.57;96.19;102350.66;6202386;28;20372;-75
2022/10/27 07:38:05;;;;;;;5.93;3.53;;;;;;;12.64;96.74;102368.16;6222571;28;20314;-78
2022/10/27 07:41:27;;;;;;;5.80;4.17;;;;;;;12.70;95.93;102366.84;6208901;28;20248;-76
2022/10/27 07:44:48;;;;;;;8.60;4.57;;;;;;;12.84;95.65;102359.44;6229816;28;20323;-77
2022/10/27 07:48:12;;;;;;;4.23;3.87;;;;;;;13.01;95.04;102362.72;6216131;28;20813;-75
2022/10/27 07:51:33;;;;;;;3.77;3.40;;;;;;;12.93;94.95;102367.84;6205707;28;20240;-76
2022/10/27 07:54:55;;;;;;;3.63;3.33;;;;;;;12.95;94.33;102371.31;6222321;28;20307;-75
2022/10/27 07:58:17;;;;;;;3.93;3.23;;;;;;;13.21;94.67;102370.22;6213459;28;20287;-72
2022/10/27 08:01:38;;;;;;;7.50;3.90;;;;;;;13.24;94.41;102373.56;6200709;28;21690;-73
2022/10/27 08:04:59;;;;;;;4.70;3.57;;;;;;;13.20;93.83;102363.09;6225120;28;20233;-75
2022/10/27 08:08:20;;;;;;;3.47;3.17;;;;;;;13.54;92.76;102364.91;6218469;28;20232;-75
2022/10/27 08:11:41;;;;;;;3.87;3.50;;;;;;;13.44;92.64;102374.75;6212092;28;20550;-76
2022/10/27 08:15:03;;;;;;;3.47;3.03;;;;;;;13.44;92.70;102374.75;6231544;28;20225;-78
2022/10/27 08:18:25;;;;;;;4.83;3.40;;;;;;;13.53;91.94;102358.66;6223065;28;20318;-78
2022/10/27 08:21:46;;;;;;;3.77;3.07;;;;;;;13.43;92.71;102354.06;6205482;28;20228;-76
2022/10/27 08:25:08;;;;;;;8.47;4.50;;;;;;;13.75;91.86;102367.84;6219812;28;20691;-78
2022/10/27 08:28:29;;;;;;;4.40;3.50;;;;;;;14.26;89.85;102353.69;6224341;28;20236;-77
2022/10/27 08:31:51;;;;;;;3.83;3.27;;;;;;;14.35;88.98;102354.84;6219071;28;20231;-75
2022/10/27 08:35:12;;;;;;;5.07;4.40;;;;;;;14.35;88.96;102354.84;6227323;28;20236;-75
2022/10/27 08:38:34;;;;;;;5.43;4.33;;;;;;;14.84;87.24;102355.25;6218892;28;20228;-79
2022/10/27 08:42:03;;;;;;;7.13;4.63;;;;;;;14.63;87.12;102362.44;6212373;28;20775;-75
2022/10/27 08:45:29;;;;;;;4.67;3.83;;;;;;;14.89;85.71;102371.16;6214116;28;20229;-77
2022/10/27 08:48:55;;;;;;;4.87;3.37;;;;;;;15.00;85.65;102365.69;6215567;28;20229;-77
2022/10/27 08:52:22;;;;;;;9.53;5.00;;;;;;;14.77;87.18;102359.44;6192308;28;20325;-79
2022/10/27 08:55:51;;;;;;;5.97;3.33;;;;;;;15.47;84.27;102362.56;6217892;28;20493;-77
2022/10/27 08:59:15;;;;;;;11.93;4.57;;;;;;;17.28;77.34;102365.19;6219905;28;20577;-81
2022/10/27 09:02:52;;;;;;;5.80;3.80;;;;;;;19.28;69.50;102350.94;6222021;28;20505;-75
2022/10/27 09:06:18;;;;;;;3.58;3.25;;;;;;;21.09;63.32;102356.22;6213451;28;20228;-72
2022/10/27 09:09:48;;;;;;;2.70;2.50;;;;;;;22.25;58.00;102353.94;6233652;28;20229;-75
2022/10/27 09:13:20;;;;;;;3.38;2.72;;;;;;;23.33;54.29;102356.72;6224238;28;20244;-74
2022/10/27 09:16:46;;;;;;;2.42;2.10;;;;;;;21.80;58.15;102354.50;6213449;28;20252;-74
2022/10/27 09:20:16;;;;;;;7.03;2.92;;;;;;;20.87;60.76;102356.78;6229566;28;20232;-76
2022/10/27 09:23:44;;;;;;;2.55;2.35;;;;;;;23.08;55.77;102348.78;6217923;28;20597;-75
2022/10/27 09:27:05;;;;;;;8.77;3.35;;;;;;;23.31;53.92;102342.25;6227540;28;20243;-76
2022/10/27 09:30:32;;;;;;;13.40;3.78;;;;;;;23.37;53.63;102349.81;6224375;28;20343;-76
2022/10/27 09:33:58;;;;;;;3.35;2.35;;;;;;;23.79;53.23;102347.38;6225831;28;20264;-77
2022/10/27 09:37:20;;;;;;;5.50;2.92;;;;;;;26.02;47.18;102345.50;6206489;28;20812;-73
2022/10/27 09:40:43;;;;;;;4.25;3.47;;;;;;;26.19;45.84;102343.28;6212486;28;20241;-72
2022/10/27 09:44:04;;;;;;;3.60;2.60;;;;;;;24.35;49.09;102347.84;6219132;28;20301;-78
2022/10/27 09:47:29;;;;;;;7.53;3.85;;;;;;;24.98;48.08;102350.84;6233537;28;20270;-81
2022/10/27 09:50:55;;;;;;;4.25;3.13;;;;;;;23.96;51.32;102349.97;6218751;28;20346;-77
2022/10/27 09:54:29;;;;;;;3.85;3.10;;;;;;;22.32;55.80;102351.34;6214296;28;20295;-77
2022/10/27 09:57:54;;;;;;;5.82;3.63;;;;;;;20.73;60.83;102357.44;6211095;28;20609;-76
2022/10/27 10:01:15;;;;;;;2.40;2.20;;;;;;;19.75;64.98;102357.88;6200373;28;20236;-74
2022/10/27 10:04:44;;;;;;;3.67;3.13;;;;;;;20.05;64.20;102351.94;6240222;28;20248;-73
2022/10/27 10:08:14;;;;;;;3.03;2.20;;;;;;;20.23;64.26;102354.63;6219819;28;20254;-74
2022/10/27 10:11:35;;;;;;;4.90;2.75;;;;;;;20.76;62.38;102349.72;6192210;28;20285;-76
2022/10/27 10:15:19;;;;;;;6.25;4.18;;;;;;;21.63;59.93;102343.72;6207429;28;20605;-74
2022/10/27 10:18:45;;;;;;;8.75;3.03;;;;;;;21.51;60.75;102336.88;6229403;28;20236;-76
2022/10/27 10:22:18;;;;;;;3.65;3.25;;;;;;;20.02;64.97;102363.22;6219583;28;20236;-76
2022/10/27 10:25:46;;;;;;;3.53;2.47;;;;;;;20.08;65.14;102359.84;6218482;28;20240;-78
2022/10/27 10:29:13;;;;;;;4.47;3.00;;;;;;;19.56;67.32;102353.47;6210222;28;20240;-76
2022/10/27 10:32:37;;;;;;;3.30;2.47;;;;;;;19.67;67.84;102353.19;6220399;28;20232;-77
2022/10/27 10:35:58;;;;;;;7.50;3.35;;;;;;;18.63;71.26;102350.22;6223436;28;20236;-77
2022/10/27 10:39:24;;;;;;;9.60;4.32;;;;;;;18.83;71.01;102349.13;6221176;28;20233;-78
2022/10/27 10:42:45;;;;;;;3.42;2.45;;;;;;;19.66;69.43;102342.41;6226186;28;20666;-78
2022/10/27 10:46:16;;;;;;;4.28;3.20;;;;;;;20.44;65.85;102346.88;6214174;28;20241;-76
2022/10/27 10:49:48;;;;;;;4.85;2.90;;;;;;;21.21;63.55;102342.00;6216197;28;20675;-78
2022/10/27 10:53:22;;;;;;;3.13;2.83;;;;;;;21.84;61.45;102342.19;6218785;28;20236;-76
2022/10/27 10:56:43;;;;;;;3.63;2.63;;;;;;;23.54;55.96;102328.50;6220626;28;20250;-76
2022/10/27 11:00:07;;;;;;;7.05;3.30;;;;;;;24.19;54.21;102334.25;6204987;28;20328;-72
2022/10/27 11:03:31;;;;;;;4.85;2.50;;;;;;;22.55;58.59;102328.41;6233950;28;20236;-76
2022/10/27 11:07:04;;;;;;;5.70;4.13;;;;;;;20.85;65.01;102337.78;6221560;28;20236;-74
2022/10/27 11:10:29;;;;;;;4.55;2.97;;;;;;;21.20;63.66;102326.56;6235289;28;20232;-74
2022/10/27 11:13:54;;;;;;;4.00;2.90;;;;;;;21.78;62.26;102320.03;6229531;28;20233;-75
2022/10/27 11:17:15;;;;;;;7.20;3.15;;;;;;;21.69;62.80;102315.59;6204488;28;20236;-75
2022/10/27 11:20:37;;;;;;;2.95;2.15;;;;;;;20.54;66.59;102321.06;6225891;28;20229;-74
2022/10/27 11:24:06;;;;;;;4.05;2.42;;;;;;;21.38;64.38;102310.78;6213325;28;20240;-75
2022/10/27 11:27:30;;;;;;;5.47;3.22;;;;;;;21.26;64.53;102312.16;6218673;28;20239;-73
2022/10/27 11:30:56;;;;;;;6.22;2.70;;;;;;;22.03;62.77;102303.34;6230125;28;20516;-73
2022/10/27 11:34:24;;;;;;;2.75;2.55;;;;;;;24.84;55.12;102295.69;6209448;28;20224;-76
2022/10/27 11:37:53;;;;;;;9.18;3.05;;;;;;;25.31;51.24;102291.31;6234126;28;20313;-73
2022/10/27 11:41:23;;;;;;;2.53;2.33;;;;;;;24.85;52.57;102283.59;6213474;28;20232;-76
2022/10/27 11:44:59;;;;;;;5.88;3.22;;;;;;;25.66;51.02;102277.63;6235205;28;20237;-81
2022/10/27 11:48:23;;;;;;;6.80;2.42;;;;;;;26.86;47.06;102268.72;6233351;28;20228;-83
2022/10/27 11:51:47;;;;;;;3.20;1.70;;;;;;;26.96;47.92;102271.06;6218154;28;21690;-75
2022/10/27 11:55:10;;;;;;;3.88;2.15;;;;;;;26.56;47.81;102268.16;6219500;28;20263;-73
2022/10/27 11:58:42;;;;;;;4.97;2.30;;;;;;;25.60;50.61;102270.97;6232483;28;20316;-77
2022/10/27 12:02:35;;;;;;;1.42;1.33;;;;;;;26.40;48.95;102262.13;6215200;28;20252;-72
2022/10/27 12:06:00;;;;;;;2.70;1.63;;;;;;;26.50;48.21;102268.13;6228376;28;20224;-76
2022/10/27 12:09:33;;;;;;;1.80;1.70;;;;;;;25.63;50.42;102267.81;6210367;28;20535;-77
2022/10/27 12:12:59;;;;;;;3.97;1.48;;;;;;;23.24;57.85;102260.63;6226154;28;20240;-78
2022/10/27 12:16:30;;;;;;;5.22;2.13;;;;;;;22.57;60.45;102260.34;6216721;28;20241;-74
2022/10/27 12:19:55;;;;;;;3.22;1.95;;;;;;;22.27;61.54;102267.56;6232012;28;20255;-79
2022/10/27 12:23:20;;;;;;;1.55;1.45;;;;;;;22.12;62.23;102262.97;6234042;28;20585;-75
2022/10/27 12:26:46;;;;;;;2.05;1.42;;;;;;;22.59;61.13;102262.97;6213627;28;20227;-76
2022/10/27 12:30:12;;;;;;;3.22;1.70;;;;;;;21.28;64.78;102263.44;6219365;28;20320;-77
2022/10/27 12:33:44;;;;;;;3.15;1.88;;;;;;;21.18;65.62;102243.56;6221120;28;20232;-80
2022/10/27 12:37:14;;;;;;;3.22;1.30;;;;;;;21.17;65.41;102246.50;6214928;28;20223;-74
2022/10/27 12:40:47;;;;;;;2.42;1.40;;;;;;;21.81;63.71;102243.66;6228274;28;20224;-78
2022/10/27 12:44:20;;;;;;;4.75;1.50;;;;;;;21.28;65.07;102240.63;6210192;28;20232;-75
2022/10/27 12:47:52;;;;;;;2.92;2.53;;;;;;;21.19;65.26;102227.97;6216190;28;20559;-74
2022/10/27 12:51:26;;;;;;;3.17;1.77;;;;;;;21.10;66.34;102229.00;6199100;28;20301;-74
2022/10/27 12:55:03;;;;;;;1.67;1.58;;;;;;;21.16;66.06;102222.81;6214795;28;20220;-71
2022/10/27 12:58:36;;;;;;;2.38;1.50;;;;;;;21.28;65.73;102213.19;6232468;28;21349;-75
2022/10/27 13:01:59;;;;;;;4.05;2.70;;;;;;;21.15;66.31;102201.94;6214903;28;20231;-72
2022/10/27 13:05:33;;;;;;;4.78;2.13;;;;;;;20.98;67.27;102198.28;6241860;28;20224;-75
2022/10/27 13:09:36;;;;;;;7.43;1.85;;;;;;;21.24;66.01;102184.41;6236841;28;20224;-76
2022/10/27 13:13:12;;;;;;;1.60;1.50;;;;;;;20.93;66.95;102188.84;6227261;28;20232;-76
2022/10/27 13:16:41;;;;;;;1.40;1.30;;;;;;;20.86;67.92;102185.09;6211184;28;20443;-78
2022/10/27 13:20:09;;;;;;;1.58;1.48;;;;;;;20.60;68.63;102179.75;6228850;28;20272;-82
2022/10/27 13:23:46;;;;;;;2.42;2.13;;;;;;;20.91;68.10;102180.81;6216072;28;20733;-80
2022/10/27 13:27:17;;;;;;;1.45;1.30;;;;;;;20.62;69.25;102178.56;6214046;28;20224;-77
2022/10/27 13:30:42;;;;;;;3.05;2.10;;;;;;;20.44;69.33;102175.09;6234078;28;20543;-75
2022/10/27 13:34:19;;;;;;;1.50;1.40;;;;;;;20.39;69.47;102180.25;6228537;28;20235;-75
2022/10/27 13:37:43;;;;;;;2.17;1.52;;;;;;;20.50;68.83;102179.06;6213494;28;20803;-76
2022/10/27 13:41:04;;;;;;;1.80;1.60;;;;;;;20.51;68.85;102175.28;6218429;28;20609;-76
2022/10/27 13:44:28;;;;;;;3.00;1.30;;;;;;;20.50;68.73;102168.97;6233526;28;20237;-71
2022/10/27 13:48:31;;;;;;;4.28;1.75;;;;;;;20.11;69.13;102173.28;6218090;28;20236;-71
2022/10/27 13:52:11;;;;;;;5.53;3.35;;;;;;;20.02;68.14;102160.59;6221350;28;20240;-71
2022/10/27 13:55:34;;;;;;;2.25;1.27;;;;;;;19.79;67.82;102164.97;6230173;28;20237;-71
2022/10/27 13:59:01;;;;;;;2.10;1.05;;;;;;;20.01;67.37;102175.28;6229484;28;20236;-72
2022/10/27 14:02:32;;;;;;;2.33;1.75;;;;;;;19.99;66.99;102171.00;6222672;28;20232;-77
2022/10/27 14:05:54;;;;;;;1.48;1.17;;;;;;;20.28;66.00;102158.63;6224272;28;20414;-78
2022/10/27 14:09:27;;;;;;;2.00;1.27;;;;;;;20.01;66.45;102161.59;6192806;28;20522;-75
2022/10/27 14:12:48;;;;;;;1.67;1.58;;;;;;;19.83;67.79;102163.59;6214127;28;20239;-77
2022/10/27 14:16:18;;;;;;;8.57;1.70;;;;;;;19.89;67.93;102163.81;6219979;28;20232;-78
2022/10/27 14:19:43;;;;;;;3.55;1.15;;;;;;;19.72;68.48;102166.63;6240325;28;20236;-80
2022/10/27 14:23:09;;;;;;;1.65;1.13;;;;;;;19.52;69.61;102156.94;6232023;28;20231;-77
2022/10/27 14:26:32;;;;;;;1.40;1.10;;;;;;;19.55;69.50;102153.88;6206089;28;22342;-76
2022/10/27 14:30:04;;;;;;;3.90;1.35;;;;;;;19.53;69.94;102150.44;6217439;28;20236;-77
2022/10/27 14:33:27;;;;;;;3.70;2.65;;;;;;;19.46;70.19;102143.94;6227433;28;20318;-76
2022/10/27 14:36:49;;;;;;;1.98;1.20;;;;;;;19.39;70.52;102134.66;6214558;28;20598;-75
2022/10/27 14:40:18;;;;;;;1.52;1.40;;;;;;;19.19;71.36;102139.47;6210572;28;20255;-76
2022/10/27 14:43:42;;;;;;;1.60;1.17;;;;;;;19.26;71.14;102131.47;6237612;28;20225;-76
2022/10/27 14:47:06;;;;;;;1.30;1.20;;;;;;;19.25;70.77;102124.28;6220902;28;20245;-75
2022/10/27 14:50:30;;;;;;;2.35;1.83;;;;;;;19.26;71.23;102124.13;6233932;28;21917;-76
2022/10/27 14:53:55;;;;;;;1.95;1.58;;;;;;;19.18;71.59;102115.88;6237388;28;21722;-77
2022/10/27 14:57:34;;;;;;;1.58;1.48;;;;;;;19.25;71.58;102122.41;6224868;28;20255;-75
2022/10/27 15:00:55;;;;;;;1.77;1.33;;;;;;;19.25;71.63;102130.63;6228290;28;20232;-75
2022/10/27 15:04:20;;;;;;;2.40;1.50;;;;;;;19.19;72.25;102123.06;6233687;28;20229;-76
2022/10/27 15:07:45;;;;;;;3.08;1.20;;;;;;;19.14;72.25;102114.47;6236867;28;20608;-76
2022/10/27 15:11:07;;;;;;;3.50;2.35;;;;;;;19.13;72.31;102115.47;6230689;28;20498;-77
2022/10/27 15:14:31;;;;;;;2.25;2.00;;;;;;;19.03;72.82;102115.59;6232454;28;20241;-76
2022/10/27 15:17:53;;;;;;;2.75;1.70;;;;;;;19.05;72.56;102121.78;6227152;28;20232;-76
2022/10/27 15:21:16;;;;;;;2.63;1.55;;;;;;;18.94;73.12;102113.00;6217681;28;20236;-75
2022/10/27 15:24:37;;;;;;;2.33;1.38;;;;;;;18.85;73.80;102114.81;6231928;28;20229;-76
2022/10/27 15:28:01;;;;;;;2.10;1.95;;;;;;;18.83;73.50;102111.38;6234096;28;20255;-75
2022/10/27 15:31:23;;;;;;;1.45;1.33;;;;;;;18.62;74.63;102112.72;6216436;28;20257;-75
2022/10/27 15:34:43;;;;;;;2.80;1.73;;;;;;;18.52;74.95;102106.50;6222843;28;20578;-73
2022/10/27 15:38:24;;;;;;;4.63;2.95;;;;;;;18.43;75.21;102101.94;6238288;28;20508;-78
2022/10/27 15:41:49;;;;;;;5.65;2.13;;;;;;;18.40;75.50;102096.81;6237738;28;20342;-75
2022/10/27 15:45:29;;;;;;;1.73;1.63;;;;;;;18.37;76.37;102097.97;6233975;28;20239;-74
2022/10/27 15:48:55;;;;;;;1.92;1.40;;;;;;;18.36;76.44;102091.63;6221850;28;20228;-73
2022/10/27 15:52:20;;;;;;;1.80;1.55;;;;;;;18.21;76.67;102089.63;6223834;28;20231;-75
2022/10/27 15:55:42;;;;;;;1.75;1.33;;;;;;;18.10;76.98;102096.19;6234038;28;20276;-73